Time;durP1;ratioP1;P1;durP2;ratioP2;P2;SDS_P1;SDS_P2;PMS_P1;PMS_P2;Temp;Humidity;BMP_temperature;BMP_pressure;BME280_temperature;BME280_humidity;BME280_pressure;Samples;Min_cycle;Max_cycle;Signal;HPM_P1;HPM_P2
2022/05/11 00:01:13;;;;;;;;;;;;;;;18.35;56.94;101214.66;5022190;28;19913;-46
2022/05/11 00:03:39;;;;;;;;;;;;;;;18.37;56.48;101218.03;5027508;28;20299;-47
2022/05/11 00:06:05;;;;;;;;;;;;;;;18.39;56.59;101224.06;5026710;28;19921;-46
2022/05/11 00:08:30;;;;;;;;;;;;;;;18.40;56.04;101217.75;5028711;28;19978;-45
2022/05/11 00:10:55;;;;;;;;;;;;;;;18.28;56.54;101224.97;5028763;28;19924;-45
2022/05/11 00:13:21;;;;;;;;;;;;;;;18.23;56.18;101225.31;5020243;28;19913;-47
2022/05/11 00:15:46;;;;;;;;;;;;;;;18.20;56.14;101214.94;5021112;28;20281;-47
2022/05/11 00:18:11;;;;;;;;;;;;;;;18.22;56.02;101215.66;5021449;28;19913;-46
2022/05/11 00:20:37;;;;;;;;;;;;;;;18.25;56.22;101215.41;5025510;28;19917;-47
2022/05/11 00:23:03;;;;;;;;;;;;;;;18.27;55.75;101205.47;5028036;28;20018;-45
2022/05/11 00:25:28;;;;;;;;;;;;;;;18.32;55.33;101214.91;5024318;28;20385;-46
2022/05/11 00:27:55;;;;;;;;;;;;;;;18.39;54.58;101216.91;5025135;28;19960;-46
2022/05/11 00:30:20;;;;;;;;;;;;;;;18.43;54.73;101201.50;5017669;28;19921;-46
2022/05/11 00:32:46;;;;;;;;;;;;;;;18.45;54.35;101212.06;5028978;28;19923;-45
2022/05/11 00:35:11;;;;;;;;;;;;;;;18.47;53.97;101205.63;5026561;28;20331;-47
2022/05/11 00:37:36;;;;;;;;;;;;;;;18.52;54.07;101203.44;5019709;28;19953;-47
2022/05/11 00:40:02;;;;;;;;;;;;;;;18.57;53.66;101203.84;5018105;28;19913;-46
2022/05/11 00:42:29;;;;;;;;;;;;;;;18.64;53.36;101188.19;5019934;28;19984;-47
2022/05/11 00:44:54;;;;;;;;;;;;;;;18.73;52.96;101178.56;5029855;28;19959;-46
2022/05/11 00:47:25;;;;;;;;;;;;;;;18.77;52.82;101171.16;5023020;28;20381;-47
2022/05/11 00:49:57;;;;;;;;;;;;;;;18.79;52.66;101179.84;5027334;28;19916;-46
2022/05/11 00:52:46;;;;;;;;;;;;;;;18.81;52.63;101170.78;5020943;28;19941;-46
2022/05/11 00:55:21;;;;;;;;;;;;;;;18.84;52.33;101162.47;5007630;28;19921;-45
2022/05/11 00:57:56;;;;;;;;;;;;;;;18.89;52.32;101165.59;5022921;28;19920;-47
2022/05/11 01:00:23;;;;;;;;;;;;;;;18.89;51.95;101157.59;5029331;28;19929;-44
2022/05/11 01:02:52;;;;;;;;;;;;;;;18.92;51.93;101147.66;5022312;28;19920;-48
2022/05/11 01:05:17;;;;;;;;;;;;;;;18.96;51.76;101149.13;5021573;28;19941;-47
2022/05/11 01:07:43;;;;;;;;;;;;;;;18.96;51.64;101146.47;5020963;28;20381;-44
2022/05/11 01:10:09;;;;;;;;;;;;;;;18.94;51.60;101143.91;5018837;28;20397;-45
2022/05/11 01:12:42;;;;;;;;;;;;;;;18.97;51.49;101143.66;5020283;28;19974;-45
2022/05/11 01:15:10;;;;;;;;;;;;;;;19.03;51.17;101135.13;5017645;28;20325;-44
2022/05/11 01:17:36;;;;;;;;;;;;;;;19.10;51.08;101130.09;5027562;28;19923;-46
2022/05/11 01:20:04;;;;;;;;;;;;;;;19.16;50.98;101129.53;5027179;28;19913;-44
2022/05/11 01:22:36;;;;;;;;;;;;;;;19.22;50.64;101135.31;5022738;28;21838;-45
2022/05/11 01:25:03;;;;;;;;;;;;;;;19.27;50.74;101130.44;5022477;28;19917;-44
2022/05/11 01:27:30;;;;;;;;;;;;;;;19.29;50.57;101125.78;5015912;28;19913;-45
2022/05/11 01:29:58;;;;;;;;;;;;;;;19.31;50.44;101130.00;5027981;28;19968;-45
2022/05/11 01:32:25;;;;;;;;;;;;;;;19.34;50.28;101127.06;5020674;28;19927;-46
2022/05/11 01:34:52;;;;;;;;;;;;;;;19.36;50.05;101134.94;5026913;28;19917;-47
2022/05/11 01:37:17;;;;;;;;;;;;;;;19.39;50.11;101121.31;5024159;28;20054;-46
2022/05/11 01:39:44;;;;;;;;;;;;;;;19.43;49.94;101119.22;5024295;28;20278;-46
2022/05/11 01:42:11;;;;;;;;;;;;;;;19.46;49.89;101108.28;5024606;28;20282;-46
2022/05/11 01:44:36;;;;;;;;;;;;;;;19.48;49.81;101107.13;5022297;28;20560;-47
2022/05/11 01:47:01;;;;;;;;;;;;;;;19.49;49.64;101106.16;5024669;28;20010;-46
2022/05/11 01:49:27;;;;;;;;;;;;;;;19.52;49.70;101106.88;5030110;28;19932;-47
2022/05/11 01:51:52;;;;;;;;;;;;;;;19.54;49.64;101099.56;5024010;28;19967;-49
2022/05/11 01:54:18;;;;;;;;;;;;;;;19.54;49.33;101100.41;5025522;28;19923;-46
2022/05/11 01:56:43;;;;;;;;;;;;;;;19.57;49.23;101107.31;5017437;28;20305;-46
2022/05/11 01:59:09;;;;;;;;;;;;;;;19.59;49.35;101105.31;5025924;28;19917;-46
2022/05/11 02:01:37;;;;;;;;;;;;;;;19.61;49.31;101100.69;5029468;28;19909;-46
2022/05/11 02:04:02;;;;;;;;;;;;;;;19.63;49.27;101088.06;5025665;28;20486;-46
2022/05/11 02:09:12;;;;;;;;;;;;;;;19.64;49.28;101089.75;5019788;28;19927;-47
2022/05/11 02:11:38;;;;;;;;;;;;;;;19.64;49.08;101081.72;5020472;28;19928;-47
2022/05/11 02:14:03;;;;;;;;;;;;;;;19.61;49.26;101080.19;5025573;28;20339;-46
2022/05/11 02:16:29;;;;;;;;;;;;;;;19.63;49.53;101088.06;5022539;28;19925;-46
2022/05/11 02:18:57;;;;;;;;;;;;;;;19.63;49.76;101080.03;5023223;28;19917;-46
2022/05/11 02:21:23;;;;;;;;;;;;;;;19.62;49.65;101075.69;5025396;28;20860;-47
2022/05/11 02:23:50;;;;;;;;;;;;;;;19.61;49.66;101076.66;5032097;28;19960;-47
2022/05/11 02:26:16;;;;;;;;;;;;;;;19.59;49.89;101063.47;5025592;28;19928;-46
2022/05/11 02:28:41;;;;;;;;;;;;;;;19.59;50.30;101059.94;5029989;28;19917;-46
2022/05/11 02:31:06;;;;;;;;;;;;;;;19.58;50.19;101058.28;5028525;28;19920;-46
2022/05/11 02:33:32;;;;;;;;;;;;;;;19.56;50.45;101050.41;5030582;28;19967;-46
2022/05/11 02:35:57;;;;;;;;;;;;;;;19.55;50.62;101051.38;5021461;28;19972;-47
2022/05/11 02:38:24;;;;;;;;;;;;;;;19.54;50.58;101054.19;5028868;28;19917;-47
2022/05/11 02:40:51;;;;;;;;;;;;;;;19.53;50.77;101047.19;5024661;28;19996;-46
2022/05/11 02:43:16;;;;;;;;;;;;;;;19.50;50.72;101041.13;5027906;28;20028;-45
2022/05/11 02:45:42;;;;;;;;;;;;;;;19.51;50.74;101044.66;5031806;28;19956;-45
2022/05/11 02:48:08;;;;;;;;;;;;;;;19.50;50.92;101048.31;5028207;28;19917;-46
2022/05/11 02:50:35;;;;;;;;;;;;;;;19.49;50.89;101055.47;5026139;28;20380;-44
2022/05/11 02:53:07;;;;;;;;;;;;;;;19.48;50.77;101060.94;5023689;28;19917;-46
2022/05/11 02:55:33;;;;;;;;;;;;;;;19.46;50.88;101061.06;5026438;28;19917;-45
2022/05/11 02:57:59;;;;;;;;;;;;;;;19.45;50.92;101054.03;5028116;28;19928;-45
2022/05/11 03:00:24;;;;;;;;;;;;;;;19.43;50.99;101061.38;5029876;28;19921;-45
2022/05/11 03:02:49;;;;;;;;;;;;;;;19.41;51.22;101052.66;5026409;28;19923;-46
2022/05/11 03:05:15;;;;;;;;;;;;;;;19.40;51.10;101066.13;5022311;28;19977;-47
2022/05/11 03:07:41;;;;;;;;;;;;;;;19.37;51.13;101067.25;5029488;28;20329;-47
2022/05/11 03:10:07;;;;;;;;;;;;;;;19.33;51.22;101060.50;5030864;28;20426;-45
2022/05/11 03:12:32;;;;;;;;;;;;;;;19.30;51.34;101061.63;5026709;28;19986;-47
2022/05/11 03:14:58;;;;;;;;;;;;;;;19.31;51.45;101059.78;5029225;28;20403;-45
2022/05/11 03:17:23;;;;;;;;;;;;;;;19.31;51.47;101065.13;5030488;28;19920;-48
2022/05/11 03:19:49;;;;;;;;;;;;;;;19.30;51.58;101063.44;5030338;28;19920;-46
2022/05/11 03:22:14;;;;;;;;;;;;;;;19.30;51.50;101069.63;5030748;28;19954;-47
2022/05/11 03:24:39;;;;;;;;;;;;;;;19.29;51.67;101059.94;5030413;28;19917;-46
2022/05/11 03:27:05;;;;;;;;;;;;;;;19.30;51.68;101071.44;5021860;28;20312;-47
2022/05/11 03:29:30;;;;;;;;;;;;;;;19.29;51.48;101072.41;5024512;28;19931;-47
2022/05/11 03:34:40;;;;;;;;;;;;;;;19.26;51.69;101086.88;5029932;28;19920;-47
2022/05/11 03:37:13;;;;;;;;;;;;;;;19.23;51.60;101080.97;5027890;28;19924;-46
2022/05/11 03:39:39;;;;;;;;;;;;;;;19.18;51.50;101084.91;5027573;28;19951;-47
2022/05/11 03:42:05;;;;;;;;;;;;;;;19.15;51.56;101087.00;5026225;28;19944;-48
2022/05/11 03:44:31;;;;;;;;;;;;;;;19.10;51.75;101100.75;5025750;28;19916;-47
2022/05/11 03:46:57;;;;;;;;;;;;;;;19.00;51.63;101087.38;5028309;28;19924;-45
2022/05/11 03:49:22;;;;;;;;;;;;;;;18.89;51.88;101112.28;5029258;28;20421;-46
2022/05/11 03:51:48;;;;;;;;;;;;;;;18.82;52.05;101104.97;5028301;28;19913;-46
2022/05/11 03:54:13;;;;;;;;;;;;;;;18.75;52.24;101125.97;5027799;28;19917;-46
2022/05/11 03:56:39;;;;;;;;;;;;;;;18.65;52.45;101130.41;5026880;28;19913;-47
2022/05/11 03:59:04;;;;;;;;;;;;;;;18.59;52.79;101129.13;5021360;28;19920;-44
2022/05/11 04:01:29;;;;;;;;;;;;;;;18.54;52.63;101134.81;5018683;28;20288;-45
2022/05/11 04:03:55;;;;;;;;;;;;;;;18.50;52.61;101132.56;5023432;28;19924;-44
2022/05/11 04:06:20;;;;;;;;;;;;;;;18.45;52.81;101140.97;5023403;28;19921;-46
2022/05/11 04:08:45;;;;;;;;;;;;;;;18.42;52.79;101139.41;5023882;28;19925;-50
2022/05/11 04:11:12;;;;;;;;;;;;;;;18.42;52.96;101141.22;5022696;28;20556;-45
2022/05/11 04:13:37;;;;;;;;;;;;;;;18.42;53.05;101139.41;5025677;28;19933;-45
2022/05/11 04:16:03;;;;;;;;;;;;;;;18.43;53.13;101145.56;5026721;28;19924;-48
2022/05/11 04:18:29;;;;;;;;;;;;;;;18.45;53.10;101135.63;5027002;28;22213;-44
2022/05/11 04:20:54;;;;;;;;;;;;;;;18.46;53.15;101132.00;5024824;28;21355;-46
2022/05/11 04:23:19;;;;;;;;;;;;;;;18.49;53.29;101137.06;5026409;28;19967;-47
2022/05/11 04:25:44;;;;;;;;;;;;;;;18.54;53.36;101145.50;5025013;28;19917;-47
2022/05/11 04:28:13;;;;;;;;;;;;;;;18.57;53.47;101147.06;5014278;28;24781;-45
2022/05/11 04:30:39;;;;;;;;;;;;;;;18.59;53.54;101153.94;5019803;28;19917;-44
2022/05/11 04:33:05;;;;;;;;;;;;;;;18.61;53.59;101144.97;5024528;28;19920;-50
2022/05/11 04:35:31;;;;;;;;;;;;;;;18.62;53.67;101147.50;5021005;28;19932;-47
2022/05/11 04:37:57;;;;;;;;;;;;;;;18.64;53.86;101145.53;5021296;28;19920;-50
2022/05/11 04:40:23;;;;;;;;;;;;;;;18.68;53.92;101140.81;5025935;28;20415;-47
2022/05/11 04:42:48;;;;;;;;;;;;;;;18.70;54.00;101136.19;5016809;28;19920;-46
2022/05/11 04:45:13;;;;;;;;;;;;;;;18.72;54.14;101136.88;5018200;28;19921;-47
2022/05/11 04:47:39;;;;;;;;;;;;;;;18.73;54.05;101139.44;5023636;28;20004;-48
2022/05/11 04:50:05;;;;;;;;;;;;;;;18.75;54.06;101144.63;5022287;28;20093;-46
2022/05/11 04:52:30;;;;;;;;;;;;;;;18.77;54.20;101156.00;5023773;28;19968;-48
2022/05/11 04:54:55;;;;;;;;;;;;;;;18.76;54.24;101151.66;5023246;28;20366;-48
2022/05/11 04:57:21;;;;;;;;;;;;;;;18.74;54.25;101156.28;5022261;28;19924;-47
2022/05/11 04:59:46;;;;;;;;;;;;;;;18.72;54.09;101156.41;5012863;28;19975;-44
2022/05/11 05:02:16;;;;;;;;;;;;;;;18.74;54.27;101156.28;5024478;28;19913;-50
2022/05/11 05:04:41;;;;;;;;;;;;;;;18.75;54.34;101147.28;5028654;28;19921;-45
2022/05/11 05:07:07;;;;;;;;;;;;;;;18.75;54.30;101152.63;5031268;28;20026;-46
2022/05/11 05:09:32;;;;;;;;;;;;;;;18.73;54.38;101149.25;5028131;28;20297;-47
2022/05/11 05:11:57;;;;;;;;;;;;;;;18.72;54.45;101145.75;5029308;28;19924;-44
2022/05/11 05:14:23;;;;;;;;;;;;;;;18.74;54.57;101150.94;5029526;28;19917;-50
2022/05/11 05:16:48;;;;;;;;;;;;;;;18.77;54.65;101139.16;5029837;28;19999;-48
2022/05/11 05:19:14;;;;;;;;;;;;;;;18.78;54.58;101147.03;5032361;28;19941;-47
2022/05/11 05:21:40;;;;;;;;;;;;;;;18.78;54.53;101152.38;5024817;28;19913;-46
2022/05/11 05:24:05;;;;;;;;;;;;;;;18.77;54.76;101156.00;5024507;28;19936;-46
2022/05/11 05:26:31;;;;;;;;;;;;;;;18.78;54.76;101165.69;5027208;28;19975;-46
2022/05/11 05:31:40;;;;;;;;;;;;;;;18.76;54.70;101164.13;5025609;28;19920;-46
2022/05/11 05:34:05;;;;;;;;;;;;;;;18.74;54.83;101166.94;5024183;28;19921;-46
2022/05/11 05:36:32;;;;;;;;;;;;;;;18.73;54.89;101159.91;5030553;28;19913;-47
2022/05/11 05:39:00;;;;;;;;;;;;;;;18.73;54.97;101151.91;5033227;28;20003;-48
2022/05/11 05:41:27;;;;;;;;;;;;;;;18.74;55.05;101150.94;5024074;28;20007;-46
2022/05/11 05:43:52;;;;;;;;;;;;;;;18.74;55.16;101150.94;5030177;28;20292;-47
2022/05/11 05:46:18;;;;;;;;;;;;;;;18.75;55.25;101141.97;5010457;28;19917;-46
2022/05/11 05:48:44;;;;;;;;;;;;;;;18.76;55.28;101141.00;5031618;28;19978;-47
2022/05/11 05:51:10;;;;;;;;;;;;;;;18.77;55.38;101144.50;5026756;28;19951;-46
2022/05/11 05:53:36;;;;;;;;;;;;;;;18.78;55.47;101146.19;5029172;28;19920;-46
2022/05/11 05:56:02;;;;;;;;;;;;;;;18.78;55.50;101146.19;5030892;28;20306;-46
2022/05/11 05:58:27;;;;;;;;;;;;;;;18.78;55.44;101136.38;5027150;28;19920;-45
2022/05/11 06:00:53;;;;;;;;;;;;;;;18.77;55.64;101126.69;5019570;28;19975;-47
2022/05/11 06:03:22;;;;;;;;;;;;;;;18.77;55.51;101132.03;5027350;28;19989;-47
2022/05/11 06:05:47;;;;;;;;;;;;;;;18.77;55.61;101137.34;5027890;28;20407;-47
2022/05/11 06:08:15;;;;;;;;;;;;;;;18.80;55.96;101145.09;5023491;28;19920;-46
2022/05/11 06:10:41;;;;;;;;;;;;;;;18.81;55.84;101141.44;5020566;28;19917;-45
2022/05/11 06:13:07;;;;;;;;;;;;;;;18.79;55.65;101142.53;5023741;28;19974;-49
2022/05/11 06:15:33;;;;;;;;;;;;;;;18.79;55.86;101147.88;5021710;28;19916;-46
2022/05/11 06:17:58;;;;;;;;;;;;;;;18.79;55.86;101137.22;5023926;28;19978;-45
2022/05/11 06:20:23;;;;;;;;;;;;;;;18.79;55.81;101137.22;5023384;28;20312;-47
2022/05/11 06:22:50;;;;;;;;;;;;;;;18.80;55.78;101145.09;5026169;28;19936;-46
2022/05/11 06:25:18;;;;;;;;;;;;;;;18.80;55.77;101134.44;5018765;28;19929;-45
2022/05/11 06:27:44;;;;;;;;;;;;;;;18.81;55.78;101127.25;5015020;28;19999;-46
2022/05/11 06:30:09;;;;;;;;;;;;;;;18.81;55.83;101130.78;5021474;28;19921;-47
2022/05/11 06:32:34;;;;;;;;;;;;;;;18.81;55.85;101130.78;5018844;28;20627;-45
2022/05/11 06:35:00;;;;;;;;;;;;;;;18.81;56.08;101119.25;5022981;28;19917;-48
2022/05/11 06:37:25;;;;;;;;;;;;;;;18.82;56.15;101131.63;5020326;28;19925;-47
2022/05/11 06:39:51;;;;;;;;;;;;;;;18.83;55.96;101127.97;5020515;28;19928;-47
2022/05/11 06:42:17;;;;;;;;;;;;;;;18.82;56.11;101127.16;5020426;28;19916;-48
2022/05/11 06:44:42;;;;;;;;;;;;;;;18.82;56.04;101129.81;5023021;28;19913;-48
2022/05/11 06:47:07;;;;;;;;;;;;;;;18.82;56.00;101121.81;5020870;28;19921;-46
2022/05/11 06:49:33;;;;;;;;;;;;;;;18.83;56.23;101117.31;5021395;28;19979;-46
2022/05/11 06:51:59;;;;;;;;;;;;;;;18.83;56.28;101112.81;5028170;28;19917;-47
2022/05/11 06:59:53;;;;;;;;;;;;;;;18.88;56.45;101109.75;5026622;28;19929;-46
2022/05/11 07:02:19;;;;;;;;;;;;;;;18.88;56.36;101105.25;5022582;28;19921;-48
2022/05/11 07:04:44;;;;;;;;;;;;;;;18.89;56.36;101112.28;5021095;28;19921;-46
2022/05/11 07:07:10;;;;;;;;;;;;;;;18.91;56.27;101108.66;5018861;28;20452;-49
2022/05/11 07:09:35;;;;;;;;;;;;;;;18.91;56.38;101101.47;5024424;28;19921;-47
2022/05/11 07:14:53;;;;;;;;;;;;;;;18.96;56.53;101087.78;5020889;28;19978;-49
2022/05/11 07:17:24;;;;;;;;;;;;;;;19.00;56.58;101073.19;5015206;28;19918;-46
2022/05/11 07:19:50;;;;;;;;;;;;;;;19.04;56.62;101080.81;5021192;28;20024;-48
2022/05/11 07:22:15;;;;;;;;;;;;;;;19.10;56.51;101082.09;5017987;28;20015;-48
2022/05/11 07:24:42;;;;;;;;;;;;;;;19.16;56.53;101086.84;5022752;28;19925;-49
2022/05/11 07:27:08;;;;;;;;;;;;;;;19.23;56.48;101086.31;5021502;28;19921;-49
2022/05/11 07:29:33;;;;;;;;;;;;;;;19.29;56.41;101075.09;5016886;28;19952;-47
2022/05/11 07:32:04;;;;;;;;;;;;;;;19.34;56.58;101064.84;5021285;28;20292;-46
2022/05/11 07:34:29;;;;;;;;;;;;;;;19.37;56.37;101059.25;5019379;28;19925;-47
2022/05/11 07:36:55;;;;;;;;;;;;;;;19.43;56.41;101058.69;5022172;28;20535;-48
2022/05/11 07:39:23;;;;;;;;;;;;;;;19.48;56.67;101064.44;5017511;28;19952;-49
2022/05/11 07:41:49;;;;;;;;;;;;;;;19.55;56.51;101066.56;5020191;28;19917;-51
2022/05/11 07:44:16;;;;;;;;;;;;;;;19.60;56.34;101054.47;5021498;28;19927;-47
2022/05/11 07:46:44;;;;;;;;;;;;;;;19.66;56.32;101047.72;5014855;28;19967;-48
2022/05/11 07:49:10;;;;;;;;;;;;;;;19.72;56.37;101044.50;5023985;28;20466;-48
2022/05/11 07:51:36;;;;;;;;;;;;;;;19.77;56.30;101047.59;5019604;28;19920;-46
2022/05/11 07:54:02;;;;;;;;;;;;;;;19.84;56.28;101039.84;5015532;28;19916;-48
2022/05/11 08:01:55;;;;;;;;;;;;;;;20.10;56.31;101025.94;5023645;28;19924;-47
2022/05/11 08:04:21;;;;;;;;;;;;;;;20.20;56.23;101023.22;5020449;28;19921;-49
2022/05/11 08:06:46;;;;;;;;;;;;;;;20.29;55.90;101025.03;5020458;28;20388;-48
2022/05/11 08:09:13;;;;;;;;;;;;;;;20.38;56.00;101017.97;5015019;28;19929;-48
2022/05/11 08:11:38;;;;;;;;;;;;;;;20.48;55.83;101017.94;5021599;28;19931;-46
2022/05/11 08:14:04;;;;;;;;;;;;;;;20.58;55.87;101017.88;5015759;28;19917;-47
2022/05/11 08:16:29;;;;;;;;;;;;;;;20.69;55.61;101010.50;5017120;28;19944;-47
2022/05/11 08:18:55;;;;;;;;;;;;;;;20.79;55.27;101013.16;5010184;28;19913;-48
2022/05/11 08:21:20;;;;;;;;;;;;;;;20.88;55.15;101003.41;5020793;28;19927;-48
2022/05/11 08:23:47;;;;;;;;;;;;;;;20.94;54.90;101002.81;5017534;28;19921;-47
2022/05/11 08:26:12;;;;;;;;;;;;;;;20.98;55.02;101004.19;5016616;28;19917;-49
2022/05/11 08:28:37;;;;;;;;;;;;;;;21.05;54.46;100995.56;5016715;28;19923;-47
2022/05/11 08:33:47;;;;;;;;;;;;;;;21.21;54.24;100993.06;5020731;28;19975;-47
2022/05/11 08:36:17;;;;;;;;;;;;;;;21.27;54.34;100989.75;5023085;28;20020;-48
2022/05/11 08:38:45;;;;;;;;;;;;;;;21.32;54.11;100990.16;4995966;28;20007;-46
2022/05/11 08:41:14;;;;;;;;;;;;;;;21.36;53.82;100988.00;5000973;28;20258;-48
2022/05/11 08:43:40;;;;;;;;;;;;;;;21.40;53.73;100983.19;5019455;28;20452;-47
2022/05/11 08:46:11;;;;;;;;;;;;;;;21.42;53.31;100983.84;5021040;28;19925;-46
2022/05/11 08:48:43;;;;;;;;;;;;;;;21.45;53.34;100980.88;5015845;28;19913;-50
2022/05/11 08:51:12;;;;;;;;;;;;;;;21.46;53.20;100974.53;5020193;28;19920;-48
2022/05/11 08:53:38;;;;;;;;;;;;;;;21.49;53.07;100974.22;5015214;28;20312;-47
2022/05/11 08:56:30;;;;;;;;;;;;;;;21.53;53.38;100970.25;5021215;28;19921;-47
2022/05/11 08:58:56;;;;;;;;;;;;;;;21.61;53.07;100962.31;5017579;28;19909;-49
2022/05/11 09:01:34;;;;;;;;;;;;;;;21.65;52.92;100962.00;5026321;28;20004;-48
2022/05/11 09:04:04;;;;;;;;;;;;;;;21.68;52.88;100961.69;5013814;28;19917;-46
2022/05/11 09:06:30;;;;;;;;;;;;;;;21.70;52.29;100957.03;5018842;28;19940;-46
2022/05/11 09:09:02;;;;;;;;;;;;;;;21.74;52.57;100956.56;5020012;28;20019;-47
2022/05/11 09:11:29;;;;;;;;;;;;;;;21.80;52.38;100962.25;5019826;28;20458;-51
2022/05/11 09:13:58;;;;;;;;;;;;;;;21.83;52.06;100961.94;5015517;28;20011;-48
2022/05/11 09:16:25;;;;;;;;;;;;;;;21.90;51.90;100957.66;5013317;28;20289;-48
2022/05/11 09:18:50;;;;;;;;;;;;;;;21.95;51.80;100954.50;5022284;28;19974;-48
2022/05/11 09:21:29;;;;;;;;;;;;;;;21.98;51.56;100968.41;5014799;28;20674;-48
2022/05/11 09:24:00;;;;;;;;;;;;;;;22.01;51.35;100965.41;5019386;28;19983;-46
2022/05/11 09:26:33;;;;;;;;;;;;;;;22.05;51.27;100963.25;5016383;28;19944;-47
2022/05/11 09:29:12;;;;;;;;;;;;;;;22.12;51.33;100958.09;5016535;28;19928;-51
2022/05/11 09:31:38;;;;;;;;;;;;;;;22.16;51.17;100949.56;5014289;28;19921;-46
2022/05/11 09:34:05;;;;;;;;;;;;;;;22.22;51.48;100948.13;4998047;28;19959;-47
2022/05/11 09:36:38;;;;;;;;;;;;;;;22.27;51.21;100950.31;5016240;28;19917;-49
2022/05/11 09:39:13;;;;;;;;;;;;;;;22.32;51.13;100947.97;5016118;28;19921;-47
2022/05/11 09:41:44;;;;;;;;;;;;;;;22.36;50.90;100958.22;5006437;28;19921;-49
2022/05/11 09:44:35;;;;;;;;;;;;;;;22.39;51.00;100951.69;5018517;28;19935;-47
2022/05/11 09:47:02;;;;;;;;;;;;;;;22.41;50.50;100947.03;5006730;28;20384;-48
2022/05/11 09:49:27;;;;;;;;;;;;;;;22.42;50.26;100938.00;5015919;28;19974;-48
2022/05/11 09:51:55;;;;;;;;;;;;;;;22.44;50.17;100940.50;5017331;28;19917;-47
2022/05/11 09:54:42;;;;;;;;;;;;;;;22.47;50.33;100940.19;5021957;28;19927;-47
2022/05/11 09:57:08;;;;;;;;;;;;;;;22.51;49.94;100934.34;5015746;28;19948;-47
2022/05/11 09:59:37;;;;;;;;;;;;;;;22.56;49.85;100924.97;5019840;28;20310;-47
2022/05/11 10:02:25;;;;;;;;;;;;;;;22.60;49.62;100921.81;5016200;28;20376;-47
2022/05/11 10:05:08;;;;;;;;;;;;;;;22.68;49.91;100920.97;5017121;28;19928;-46
2022/05/11 10:07:39;;;;;;;;;;;;;;;22.78;49.37;100916.31;5021522;28;19933;-46
2022/05/11 10:10:12;;;;;;;;;;;;;;;22.85;49.32;100919.16;5021203;28;20446;-48
2022/05/11 10:12:39;;;;;;;;;;;;;;;22.94;49.36;100906.59;5017676;28;19968;-47
2022/05/11 10:23:27;;;;;;;;;;;;;;;23.19;48.35;100895.91;5024144;28;19940;-47
2022/05/11 10:26:00;;;;;;;;;;;;;;;23.21;48.34;100883.19;5025769;28;19917;-49
2022/05/11 10:28:49;;;;;;;;;;;;;;;23.21;48.13;100873.25;5022579;28;19921;-47
2022/05/11 10:31:14;;;;;;;;;;;;;;;23.22;48.19;100871.41;5018919;28;19924;-50
2022/05/11 10:33:48;;;;;;;;;;;;;;;23.25;47.93;100868.41;5023406;28;19913;-48
2022/05/11 10:36:13;;;;;;;;;;;;;;;23.28;47.93;100870.75;5023345;28;19921;-48
2022/05/11 10:38:41;;;;;;;;;;;;;;;23.30;47.99;100860.69;5018871;28;19917;-47
2022/05/11 10:41:12;;;;;;;;;;;;;;;23.35;48.01;100865.53;5020766;28;19933;-48
2022/05/11 10:43:56;;;;;;;;;;;;;;;23.40;47.65;100858.63;5014955;28;20518;-47
2022/05/11 10:46:22;;;;;;;;;;;;;;;23.48;47.90;100851.59;5016043;28;19917;-48
2022/05/11 10:49:06;;;;;;;;;;;;;;;23.53;47.49;100843.84;5015067;28;19975;-50
2022/05/11 10:51:41;;;;;;;;;;;;;;;23.57;47.29;100846.03;5008055;28;19921;-47
2022/05/11 10:54:28;;;;;;;;;;;;;;;23.60;47.39;100834.09;5017650;28;19924;-47
2022/05/11 10:56:57;;;;;;;;;;;;;;;23.62;47.46;100832.09;5021267;28;19968;-46
2022/05/11 10:59:25;;;;;;;;;;;;;;;23.65;47.04;100829.06;5021294;28;19916;-47
2022/05/11 11:02:08;;;;;;;;;;;;;;;23.69;47.19;100816.94;5018513;28;19921;-48
2022/05/11 11:04:34;;;;;;;;;;;;;;;23.74;47.15;100814.59;5027799;28;19913;-47
2022/05/11 11:07:11;;;;;;;;;;;;;;;23.79;46.92;100818.59;5023916;28;19913;-48
2022/05/11 11:09:45;;;;;;;;;;;;;;;23.83;46.59;100812.69;5024376;28;19921;-47
2022/05/11 11:12:27;;;;;;;;;;;;;;;23.87;46.38;100813.19;5026524;28;19924;-48
2022/05/11 11:14:54;;;;;;;;;;;;;;;23.89;46.39;100800.41;5024417;28;19913;-47
2022/05/11 11:17:21;;;;;;;;;;;;;;;23.93;46.14;100800.88;5023410;28;19944;-46
2022/05/11 11:19:48;;;;;;;;;;;;;;;23.97;46.22;100800.41;5019567;28;19920;-47
2022/05/11 11:22:14;;;;;;;;;;;;;;;24.04;46.12;100793.31;5019524;28;19923;-50
2022/05/11 11:24:43;;;;;;;;;;;;;;;24.13;45.95;100774.44;5020640;28;19996;-51
2022/05/11 11:27:08;;;;;;;;;;;;;;;24.25;45.74;100778.41;5023930;28;20385;-49
2022/05/11 11:29:38;;;;;;;;;;;;;;;24.33;45.57;100764.09;5016241;28;20063;-54
2022/05/11 11:32:04;;;;;;;;;;;;;;;24.42;45.24;100770.25;5018966;28;19917;-53
2022/05/11 11:34:38;;;;;;;;;;;;;;;24.50;44.97;100762.09;5012635;28;19963;-49
2022/05/11 11:37:22;;;;;;;;;;;;;;;24.60;44.96;100754.59;5022709;28;20692;-49
2022/05/11 11:39:52;;;;;;;;;;;;;;;24.67;44.44;100746.66;5015376;28;20388;-49
2022/05/11 11:42:29;;;;;;;;;;;;;;;24.74;44.33;100747.63;5014305;28;19971;-47
2022/05/11 11:44:54;;;;;;;;;;;;;;;24.79;44.15;100729.09;5023147;28;20385;-48
2022/05/11 11:47:24;;;;;;;;;;;;;;;24.83;43.72;100748.41;5022938;28;19923;-47
2022/05/11 11:49:49;;;;;;;;;;;;;;;24.81;43.25;100729.72;5022727;28;19948;-51
2022/05/11 11:52:33;;;;;;;;;;;;;;;24.85;42.87;100724.84;5027213;28;19924;-48
2022/05/11 11:54:59;;;;;;;;;;;;;;;24.87;42.71;100727.34;5022420;28;19913;-47
2022/05/11 11:57:24;;;;;;;;;;;;;;;24.91;42.44;100729.47;5026522;28;19913;-47
2022/05/11 11:59:54;;;;;;;;;;;;;;;24.89;42.22;100722.59;5024661;28;20351;-47
2022/05/11 12:02:36;;;;;;;;;;;;;;;24.89;42.06;100715.34;5027170;28;19909;-47
2022/05/11 12:05:07;;;;;;;;;;;;;;;24.92;41.89;100717.69;5024862;28;19913;-49
2022/05/11 12:16:23;;;;;;;;;;;;;;;25.15;41.16;100697.94;5022863;28;20383;-48
2022/05/11 12:18:49;;;;;;;;;;;;;;;25.20;40.95;100690.13;5021552;28;20008;-45
2022/05/11 12:21:29;;;;;;;;;;;;;;;25.27;41.06;100682.13;5024816;28;19913;-47
2022/05/11 12:23:54;;;;;;;;;;;;;;;25.34;40.94;100679.50;5025945;28;19920;-47
2022/05/11 12:26:31;;;;;;;;;;;;;;;25.39;40.79;100677.09;5027943;28;19909;-48
2022/05/11 12:29:54;;;;;;;;;;;;;;;25.44;40.48;100657.72;5022417;28;19917;-48
2022/05/11 12:31:50;;;;;;;;;;;;;;;25.50;40.57;100652.41;5028213;28;19916;-47
2022/05/11 12:34:16;;;;;;;;;;;;;;;25.60;40.14;100667.44;5027297;28;20019;-46
2022/05/11 12:36:41;;;;;;;;;;;;;;;25.70;40.33;100662.56;5024998;28;19917;-47
2022/05/11 12:39:07;;;;;;;;;;;;;;;25.79;40.18;100661.41;5029052;28;19909;-48
2022/05/11 12:41:32;;;;;;;;;;;;;;;25.86;39.83;100651.56;5029566;28;20525;-47
2022/05/11 12:44:05;;;;;;;;;;;;;;;25.93;39.71;100658.88;5022792;28;19928;-49
2022/05/11 12:46:32;;;;;;;;;;;;;;;26.00;39.53;100643.59;5027437;28;19913;-45
2022/05/11 12:48:59;;;;;;;;;;;;;;;26.06;39.46;100640.13;5020990;28;19928;-44
2022/05/11 12:51:29;;;;;;;;;;;;;;;26.12;39.36;100631.28;5029435;28;19962;-44
2022/05/11 12:53:58;;;;;;;;;;;;;;;26.20;39.02;100629.50;5028882;28;20380;-48
2022/05/11 12:56:27;;;;;;;;;;;;;;;26.20;38.87;100632.19;5020456;28;20296;-48
2022/05/11 12:58:54;;;;;;;;;;;;;;;26.19;38.56;100617.03;5019369;28;20440;-48
2022/05/11 13:01:21;;;;;;;;;;;;;;;26.22;38.21;100630.97;5024522;28;19936;-48
2022/05/11 13:03:47;;;;;;;;;;;;;;;26.24;38.22;100630.78;5025624;28;19932;-45
2022/05/11 13:06:16;;;;;;;;;;;;;;;26.23;37.99;100623.72;5025865;28;20339;-49
2022/05/11 13:08:45;;;;;;;;;;;;;;;26.21;38.10;100623.06;5025660;28;19961;-48
2022/05/11 13:11:14;;;;;;;;;;;;;;;26.23;37.86;100604.84;5026032;28;20376;-50
2022/05/11 13:13:41;;;;;;;;;;;;;;;26.29;37.83;100601.34;5025794;28;19913;-48
2022/05/11 13:16:11;;;;;;;;;;;;;;;26.40;37.55;100602.66;5024127;28;19913;-47
2022/05/11 13:18:36;;;;;;;;;;;;;;;26.53;36.87;100612.72;5026917;28;19959;-48
2022/05/11 13:21:05;;;;;;;;;;;;;;;26.62;36.77;100588.06;5028086;28;20014;-48